Airfield :
LOGIN :

Register | Disclaimer

   EN    FR    IT 

 










Legend :    VFR   Marginal VFR   IFR   Intensive IFR   Very Intensive IFR
Visi :
Ceiling :
>= 8 km
>= 3000ft
5 to 8 km
1000 to 3000 ft
1500m to 5 km
500 to 1000 ft
800 to 1500m
200 to 500 ft
< 800m
< 200 ft
Symbols :   Thunderstorms  Fog  Heavy snow  Heavy precipitations  Wind > 20 kt
SIGMETs :     Misc.  Thunderstorms  Icing  Turbulence  Mountain Waves  Volcanic Ashes






- Airport Elevation : 41 ft


LIRE - Pratica di Mare Air Base Pomezia

CURRENT METAR :
  • 271855Z 10004KT 9999 SCT020 11/09 Q1020 RMK SCT VIS MIN 9999 WIND THR13 12002KT WIND THR31 09003KT BLU

EXPIRED METARs :
  • 271755Z 08003KT 8000 -RA SCT020 BKN040 12/10 Q1020 RMK OVC VIS MIN 8000 WIND THR13 10003KT WIND THR31 07004KT BLU
  • 271655Z 15003KT 8000 -RA FEW010 SCT016 BKN040 12/10 Q1019 RMK OVC VIS MIN 8000 WIND THR13 15003KT WIND THR31 16003KT BLU

TAF TAF LIRE
Valid from the 27 at 18:00 until the 28 at 03:00 UTC


271700Z 2718/2803 15007KT 8000 SCT020 BKN040
TEMPO 2718/2724 RA



MET'MAP, your aeronautical weather chart ! - Copyright ORBIFLY December 2007 - Disclaimer

ORBIFLY MET'MAP TEAM :

Programming & Development : Alexandra Zaïnal
Concept & original design : Baudouin d'Aumeries
Assistance for programming : Marc-Olivier Méhu
Technical & hardware support : Manuel Goepfert

Contact : metmap@orbifly.com




SOURCES & CREDITS :

   NOAA